sensor_id;sensor_type;location;lat;lon;timestamp;P1;durP1;ratioP1;P2;durP2;ratioP2
19739;SDS011;10027;51.066;13.768;2023-07-20T00:00:09;4.33;;;2.73;;
19739;SDS011;10027;51.066;13.768;2023-07-20T00:02:39;5.47;;;3.40;;
19739;SDS011;10027;51.066;13.768;2023-07-20T00:05:07;5.27;;;2.70;;
19739;SDS011;10027;51.066;13.768;2023-07-20T00:07:34;2.97;;;2.60;;
19739;SDS011;10027;51.066;13.768;2023-07-20T00:10:01;3.10;;;2.80;;
19739;SDS011;10027;51.066;13.768;2023-07-20T00:12:29;3.13;;;2.77;;
19739;SDS011;10027;51.066;13.768;2023-07-20T00:14:56;2.93;;;2.53;;
19739;SDS011;10027;51.066;13.768;2023-07-20T00:17:23;4.40;;;2.80;;
19739;SDS011;10027;51.066;13.768;2023-07-20T00:19:50;4.13;;;2.97;;
19739;SDS011;10027;51.066;13.768;2023-07-20T00:22:17;4.20;;;2.90;;
19739;SDS011;10027;51.066;13.768;2023-07-20T00:24:44;4.80;;;2.83;;
19739;SDS011;10027;51.066;13.768;2023-07-20T00:27:12;3.23;;;2.80;;
19739;SDS011;10027;51.066;13.768;2023-07-20T00:29:39;3.20;;;2.90;;
19739;SDS011;10027;51.066;13.768;2023-07-20T00:32:06;3.93;;;2.93;;
19739;SDS011;10027;51.066;13.768;2023-07-20T00:34:33;3.87;;;2.57;;
19739;SDS011;10027;51.066;13.768;2023-07-20T00:37:01;4.37;;;2.70;;
19739;SDS011;10027;51.066;13.768;2023-07-20T00:39:28;3.60;;;2.50;;
19739;SDS011;10027;51.066;13.768;2023-07-20T00:41:56;2.67;;;2.47;;
19739;SDS011;10027;51.066;13.768;2023-07-20T00:44:23;2.60;;;2.40;;
19739;SDS011;10027;51.066;13.768;2023-07-20T00:46:50;3.37;;;2.43;;
19739;SDS011;10027;51.066;13.768;2023-07-20T00:49:18;2.50;;;2.30;;
19739;SDS011;10027;51.066;13.768;2023-07-20T00:51:47;2.70;;;2.47;;
19739;SDS011;10027;51.066;13.768;2023-07-20T00:54:15;2.30;;;2.10;;
19739;SDS011;10027;51.066;13.768;2023-07-20T00:56:43;2.47;;;2.00;;
19739;SDS011;10027;51.066;13.768;2023-07-20T00:59:10;2.20;;;2.00;;
19739;SDS011;10027;51.066;13.768;2023-07-20T01:01:37;2.30;;;2.10;;
19739;SDS011;10027;51.066;13.768;2023-07-20T01:04:05;2.43;;;2.23;;
19739;SDS011;10027;51.066;13.768;2023-07-20T01:09:05;3.70;;;2.20;;
19739;SDS011;10027;51.066;13.768;2023-07-20T01:14:07;1.73;;;1.50;;
19739;SDS011;10027;51.066;13.768;2023-07-20T01:16:35;1.93;;;1.70;;
19739;SDS011;10027;51.066;13.768;2023-07-20T01:19:02;1.90;;;1.70;;
19739;SDS011;10027;51.066;13.768;2023-07-20T01:22:16;3.10;;;1.87;;
19739;SDS011;10027;51.066;13.768;2023-07-20T01:32:09;1.97;;;1.70;;
19739;SDS011;10027;51.066;13.768;2023-07-20T01:34:36;2.67;;;1.60;;
19739;SDS011;10027;51.066;13.768;2023-07-20T01:37:05;5.20;;;1.40;;
19739;SDS011;10027;51.066;13.768;2023-07-20T01:39:33;1.50;;;1.40;;
19739;SDS011;10027;51.066;13.768;2023-07-20T01:42:01;1.40;;;1.30;;
19739;SDS011;10027;51.066;13.768;2023-07-20T01:44:29;1.83;;;1.23;;
19739;SDS011;10027;51.066;13.768;2023-07-20T01:46:56;1.43;;;1.33;;
19739;SDS011;10027;51.066;13.768;2023-07-20T01:49:23;1.50;;;1.40;;
19739;SDS011;10027;51.066;13.768;2023-07-20T01:51:50;2.80;;;1.50;;
19739;SDS011;10027;51.066;13.768;2023-07-20T01:54:17;2.10;;;1.70;;
19739;SDS011;10027;51.066;13.768;2023-07-20T01:56:45;4.77;;;1.50;;
19739;SDS011;10027;51.066;13.768;2023-07-20T01:59:12;2.23;;;1.50;;
19739;SDS011;10027;51.066;13.768;2023-07-20T02:01:39;2.90;;;1.47;;
19739;SDS011;10027;51.066;13.768;2023-07-20T02:04:06;3.67;;;1.57;;
19739;SDS011;10027;51.066;13.768;2023-07-20T02:06:33;2.17;;;1.60;;
19739;SDS011;10027;51.066;13.768;2023-07-20T02:09:01;2.17;;;1.60;;
19739;SDS011;10027;51.066;13.768;2023-07-20T02:11:28;1.70;;;1.60;;
19739;SDS011;10027;51.066;13.768;2023-07-20T02:13:55;3.17;;;1.70;;
19739;SDS011;10027;51.066;13.768;2023-07-20T02:16:22;3.30;;;1.50;;
19739;SDS011;10027;51.066;13.768;2023-07-20T02:18:50;1.90;;;1.70;;
19739;SDS011;10027;51.066;13.768;2023-07-20T02:21:18;1.70;;;1.60;;
19739;SDS011;10027;51.066;13.768;2023-07-20T02:23:45;3.43;;;1.80;;
19739;SDS011;10027;51.066;13.768;2023-07-20T02:26:12;2.60;;;1.80;;
19739;SDS011;10027;51.066;13.768;2023-07-20T02:28:39;3.07;;;1.70;;
19739;SDS011;10027;51.066;13.768;2023-07-20T02:31:07;2.80;;;2.00;;
19739;SDS011;10027;51.066;13.768;2023-07-20T02:33:34;6.50;;;2.13;;
19739;SDS011;10027;51.066;13.768;2023-07-20T02:36:01;2.77;;;2.20;;
19739;SDS011;10027;51.066;13.768;2023-07-20T02:38:28;2.73;;;2.00;;
19739;SDS011;10027;51.066;13.768;2023-07-20T02:40:55;2.50;;;2.20;;
19739;SDS011;10027;51.066;13.768;2023-07-20T02:43:23;2.87;;;2.10;;
19739;SDS011;10027;51.066;13.768;2023-07-20T02:45:50;3.37;;;2.20;;
19739;SDS011;10027;51.066;13.768;2023-07-20T02:48:17;4.53;;;2.27;;
19739;SDS011;10027;51.066;13.768;2023-07-20T02:50:45;3.27;;;2.57;;
19739;SDS011;10027;51.066;13.768;2023-07-20T02:53:12;3.60;;;2.63;;
19739;SDS011;10027;51.066;13.768;2023-07-20T02:55:39;4.23;;;2.90;;
19739;SDS011;10027;51.066;13.768;2023-07-20T02:58:07;5.17;;;2.67;;
19739;SDS011;10027;51.066;13.768;2023-07-20T03:00:34;6.67;;;3.03;;
19739;SDS011;10027;51.066;13.768;2023-07-20T03:03:01;4.80;;;3.17;;
19739;SDS011;10027;51.066;13.768;2023-07-20T03:05:28;9.83;;;3.60;;
19739;SDS011;10027;51.066;13.768;2023-07-20T03:07:56;5.30;;;3.27;;
19739;SDS011;10027;51.066;13.768;2023-07-20T03:10:23;3.90;;;3.37;;
19739;SDS011;10027;51.066;13.768;2023-07-20T03:12:50;5.10;;;3.40;;
19739;SDS011;10027;51.066;13.768;2023-07-20T03:15:18;6.73;;;3.43;;
19739;SDS011;10027;51.066;13.768;2023-07-20T03:17:45;4.20;;;3.50;;
19739;SDS011;10027;51.066;13.768;2023-07-20T03:20:30;5.27;;;3.37;;
19739;SDS011;10027;51.066;13.768;2023-07-20T03:22:58;10.13;;;3.77;;
19739;SDS011;10027;51.066;13.768;2023-07-20T03:25:25;3.97;;;3.43;;
19739;SDS011;10027;51.066;13.768;2023-07-20T03:27:54;5.17;;;3.43;;
19739;SDS011;10027;51.066;13.768;2023-07-20T03:30:21;5.87;;;3.43;;
19739;SDS011;10027;51.066;13.768;2023-07-20T03:32:49;7.17;;;3.57;;
19739;SDS011;10027;51.066;13.768;2023-07-20T03:35:16;9.87;;;3.70;;
19739;SDS011;10027;51.066;13.768;2023-07-20T03:37:43;5.47;;;3.50;;
19739;SDS011;10027;51.066;13.768;2023-07-20T03:40:11;4.20;;;3.40;;
19739;SDS011;10027;51.066;13.768;2023-07-20T03:42:38;5.03;;;3.87;;
19739;SDS011;10027;51.066;13.768;2023-07-20T03:45:05;3.63;;;3.33;;
19739;SDS011;10027;51.066;13.768;2023-07-20T03:47:33;6.10;;;3.50;;
19739;SDS011;10027;51.066;13.768;2023-07-20T03:50:00;4.60;;;4.00;;
19739;SDS011;10027;51.066;13.768;2023-07-20T03:52:28;7.23;;;3.20;;
19739;SDS011;10027;51.066;13.768;2023-07-20T03:54:55;4.43;;;3.40;;
19739;SDS011;10027;51.066;13.768;2023-07-20T03:57:22;8.40;;;3.67;;
19739;SDS011;10027;51.066;13.768;2023-07-20T03:59:50;4.20;;;3.50;;
19739;SDS011;10027;51.066;13.768;2023-07-20T04:02:17;5.20;;;4.00;;
19739;SDS011;10027;51.066;13.768;2023-07-20T04:04:44;4.87;;;3.50;;
19739;SDS011;10027;51.066;13.768;2023-07-20T04:07:11;6.43;;;3.53;;
19739;SDS011;10027;51.066;13.768;2023-07-20T04:09:38;6.73;;;4.10;;
19739;SDS011;10027;51.066;13.768;2023-07-20T04:12:06;5.10;;;3.90;;
19739;SDS011;10027;51.066;13.768;2023-07-20T04:14:33;3.53;;;3.03;;
19739;SDS011;10027;51.066;13.768;2023-07-20T04:17:01;6.30;;;3.87;;
19739;SDS011;10027;51.066;13.768;2023-07-20T04:19:28;5.90;;;3.83;;
19739;SDS011;10027;51.066;13.768;2023-07-20T04:21:55;5.77;;;3.63;;
19739;SDS011;10027;51.066;13.768;2023-07-20T04:24:23;6.53;;;3.50;;
19739;SDS011;10027;51.066;13.768;2023-07-20T04:26:50;7.13;;;3.87;;
19739;SDS011;10027;51.066;13.768;2023-07-20T04:29:17;8.77;;;3.90;;
19739;SDS011;10027;51.066;13.768;2023-07-20T04:31:44;5.13;;;3.47;;
19739;SDS011;10027;51.066;13.768;2023-07-20T04:34:11;4.20;;;3.37;;
19739;SDS011;10027;51.066;13.768;2023-07-20T04:36:38;5.83;;;3.60;;
19739;SDS011;10027;51.066;13.768;2023-07-20T04:39:06;4.03;;;3.47;;
19739;SDS011;10027;51.066;13.768;2023-07-20T04:41:51;6.00;;;3.70;;
19739;SDS011;10027;51.066;13.768;2023-07-20T04:44:18;5.00;;;3.70;;
19739;SDS011;10027;51.066;13.768;2023-07-20T04:46:45;5.03;;;3.63;;
19739;SDS011;10027;51.066;13.768;2023-07-20T04:49:12;7.90;;;4.00;;
19739;SDS011;10027;51.066;13.768;2023-07-20T04:51:40;8.43;;;4.10;;
19739;SDS011;10027;51.066;13.768;2023-07-20T04:54:07;6.97;;;4.07;;
19739;SDS011;10027;51.066;13.768;2023-07-20T04:56:34;6.53;;;4.17;;
19739;SDS011;10027;51.066;13.768;2023-07-20T04:59:01;6.07;;;4.10;;
19739;SDS011;10027;51.066;13.768;2023-07-20T05:01:29;4.77;;;4.20;;
19739;SDS011;10027;51.066;13.768;2023-07-20T05:03:56;7.97;;;4.27;;
19739;SDS011;10027;51.066;13.768;2023-07-20T05:06:24;5.93;;;3.80;;
19739;SDS011;10027;51.066;13.768;2023-07-20T05:08:52;8.70;;;4.03;;
19739;SDS011;10027;51.066;13.768;2023-07-20T05:11:19;9.90;;;4.23;;
19739;SDS011;10027;51.066;13.768;2023-07-20T05:13:46;7.47;;;4.00;;
19739;SDS011;10027;51.066;13.768;2023-07-20T05:16:13;6.27;;;4.00;;
19739;SDS011;10027;51.066;13.768;2023-07-20T05:18:41;4.50;;;3.80;;
19739;SDS011;10027;51.066;13.768;2023-07-20T05:21:08;4.10;;;3.70;;
19739;SDS011;10027;51.066;13.768;2023-07-20T05:23:35;5.37;;;3.83;;
19739;SDS011;10027;51.066;13.768;2023-07-20T05:26:02;6.57;;;3.90;;
19739;SDS011;10027;51.066;13.768;2023-07-20T05:28:30;5.23;;;4.07;;
19739;SDS011;10027;51.066;13.768;2023-07-20T05:30:57;7.13;;;3.87;;
19739;SDS011;10027;51.066;13.768;2023-07-20T05:33:25;4.93;;;4.17;;
19739;SDS011;10027;51.066;13.768;2023-07-20T05:35:52;5.53;;;3.70;;
19739;SDS011;10027;51.066;13.768;2023-07-20T05:38:20;4.83;;;3.60;;
19739;SDS011;10027;51.066;13.768;2023-07-20T05:40:47;4.80;;;3.60;;
19739;SDS011;10027;51.066;13.768;2023-07-20T05:43:14;7.23;;;3.47;;
19739;SDS011;10027;51.066;13.768;2023-07-20T05:45:42;5.47;;;3.20;;
19739;SDS011;10027;51.066;13.768;2023-07-20T05:48:09;10.00;;;3.50;;
19739;SDS011;10027;51.066;13.768;2023-07-20T05:50:38;5.50;;;3.60;;
19739;SDS011;10027;51.066;13.768;2023-07-20T05:53:05;6.70;;;2.80;;
19739;SDS011;10027;51.066;13.768;2023-07-20T05:55:32;3.50;;;3.20;;
19739;SDS011;10027;51.066;13.768;2023-07-20T05:57:59;5.17;;;3.10;;
19739;SDS011;10027;51.066;13.768;2023-07-20T06:00:27;7.03;;;3.50;;
19739;SDS011;10027;51.066;13.768;2023-07-20T06:02:54;5.20;;;3.23;;
19739;SDS011;10027;51.066;13.768;2023-07-20T06:05:22;4.97;;;3.20;;
19739;SDS011;10027;51.066;13.768;2023-07-20T06:07:53;4.57;;;3.00;;
19739;SDS011;10027;51.066;13.768;2023-07-20T06:10:21;4.43;;;3.23;;
19739;SDS011;10027;51.066;13.768;2023-07-20T06:12:49;5.40;;;3.27;;
19739;SDS011;10027;51.066;13.768;2023-07-20T06:15:26;4.27;;;3.33;;
19739;SDS011;10027;51.066;13.768;2023-07-20T06:17:54;5.10;;;3.37;;
19739;SDS011;10027;51.066;13.768;2023-07-20T06:20:22;5.83;;;3.53;;
19739;SDS011;10027;51.066;13.768;2023-07-20T06:22:49;4.30;;;3.60;;
19739;SDS011;10027;51.066;13.768;2023-07-20T06:25:17;4.60;;;3.57;;
19739;SDS011;10027;51.066;13.768;2023-07-20T06:27:44;5.23;;;3.90;;
19739;SDS011;10027;51.066;13.768;2023-07-20T06:30:11;7.03;;;3.30;;
19739;SDS011;10027;51.066;13.768;2023-07-20T06:32:38;3.63;;;2.73;;
19739;SDS011;10027;51.066;13.768;2023-07-20T06:35:06;3.30;;;2.90;;
19739;SDS011;10027;51.066;13.768;2023-07-20T06:37:34;6.60;;;3.50;;
19739;SDS011;10027;51.066;13.768;2023-07-20T06:40:02;3.30;;;2.47;;
19739;SDS011;10027;51.066;13.768;2023-07-20T06:42:33;6.47;;;2.90;;
19739;SDS011;10027;51.066;13.768;2023-07-20T06:45:03;3.77;;;2.77;;
19739;SDS011;10027;51.066;13.768;2023-07-20T06:47:31;4.67;;;2.70;;
19739;SDS011;10027;51.066;13.768;2023-07-20T06:49:58;5.73;;;2.23;;
19739;SDS011;10027;51.066;13.768;2023-07-20T06:52:25;3.30;;;2.30;;
19739;SDS011;10027;51.066;13.768;2023-07-20T06:54:52;2.83;;;2.40;;
19739;SDS011;10027;51.066;13.768;2023-07-20T06:57:19;5.37;;;2.50;;
19739;SDS011;10027;51.066;13.768;2023-07-20T06:59:47;2.70;;;2.30;;
19739;SDS011;10027;51.066;13.768;2023-07-20T07:02:15;3.67;;;2.63;;
19739;SDS011;10027;51.066;13.768;2023-07-20T07:04:42;2.47;;;2.27;;
19739;SDS011;10027;51.066;13.768;2023-07-20T07:07:09;3.47;;;2.77;;
19739;SDS011;10027;51.066;13.768;2023-07-20T07:09:36;5.00;;;2.60;;
19739;SDS011;10027;51.066;13.768;2023-07-20T07:12:03;3.80;;;2.80;;
19739;SDS011;10027;51.066;13.768;2023-07-20T07:14:31;3.83;;;2.53;;
19739;SDS011;10027;51.066;13.768;2023-07-20T07:16:58;3.07;;;2.80;;
19739;SDS011;10027;51.066;13.768;2023-07-20T07:19:30;4.60;;;3.00;;
19739;SDS011;10027;51.066;13.768;2023-07-20T07:21:57;4.60;;;2.67;;
19739;SDS011;10027;51.066;13.768;2023-07-20T07:24:25;3.07;;;2.60;;
19739;SDS011;10027;51.066;13.768;2023-07-20T07:26:55;2.77;;;2.53;;
19739;SDS011;10027;51.066;13.768;2023-07-20T07:29:23;2.90;;;2.60;;
19739;SDS011;10027;51.066;13.768;2023-07-20T07:31:50;3.73;;;2.60;;
19739;SDS011;10027;51.066;13.768;2023-07-20T07:34:17;2.87;;;2.40;;
19739;SDS011;10027;51.066;13.768;2023-07-20T07:36:44;2.60;;;2.40;;
19739;SDS011;10027;51.066;13.768;2023-07-20T07:39:11;3.30;;;2.33;;
19739;SDS011;10027;51.066;13.768;2023-07-20T07:41:41;2.50;;;2.30;;
19739;SDS011;10027;51.066;13.768;2023-07-20T07:44:08;3.57;;;2.47;;
19739;SDS011;10027;51.066;13.768;2023-07-20T07:46:35;2.60;;;2.03;;
19739;SDS011;10027;51.066;13.768;2023-07-20T07:49:03;2.50;;;2.00;;
19739;SDS011;10027;51.066;13.768;2023-07-20T07:51:30;3.10;;;2.00;;
19739;SDS011;10027;51.066;13.768;2023-07-20T07:53:57;3.00;;;2.67;;
19739;SDS011;10027;51.066;13.768;2023-07-20T07:56:24;3.90;;;2.27;;
19739;SDS011;10027;51.066;13.768;2023-07-20T07:58:52;2.30;;;2.10;;
19739;SDS011;10027;51.066;13.768;2023-07-20T08:01:19;2.93;;;2.63;;
19739;SDS011;10027;51.066;13.768;2023-07-20T08:03:47;3.37;;;2.63;;
19739;SDS011;10027;51.066;13.768;2023-07-20T08:06:14;4.73;;;2.80;;
19739;SDS011;10027;51.066;13.768;2023-07-20T08:08:41;3.60;;;3.30;;
19739;SDS011;10027;51.066;13.768;2023-07-20T08:11:08;6.23;;;3.90;;
19739;SDS011;10027;51.066;13.768;2023-07-20T08:13:37;4.00;;;3.60;;
19739;SDS011;10027;51.066;13.768;2023-07-20T08:16:04;3.95;;;3.60;;
19739;SDS011;10027;51.066;13.768;2023-07-20T08:18:32;3.60;;;3.30;;
19739;SDS011;10027;51.066;13.768;2023-07-20T08:20:59;3.95;;;3.55;;
19739;SDS011;10027;51.066;13.768;2023-07-20T08:23:26;3.30;;;3.08;;
19739;SDS011;10027;51.066;13.768;2023-07-20T08:25:54;3.45;;;3.15;;
19739;SDS011;10027;51.066;13.768;2023-07-20T08:28:21;3.42;;;3.13;;
19739;SDS011;10027;51.066;13.768;2023-07-20T08:30:49;4.85;;;3.08;;
19739;SDS011;10027;51.066;13.768;2023-07-20T08:33:17;3.97;;;3.40;;
19739;SDS011;10027;51.066;13.768;2023-07-20T08:35:46;5.03;;;3.47;;
19739;SDS011;10027;51.066;13.768;2023-07-20T08:38:13;4.05;;;3.15;;
19739;SDS011;10027;51.066;13.768;2023-07-20T08:40:44;5.30;;;2.90;;
19739;SDS011;10027;51.066;13.768;2023-07-20T08:43:12;3.65;;;3.35;;
19739;SDS011;10027;51.066;13.768;2023-07-20T08:45:40;3.40;;;3.10;;
19739;SDS011;10027;51.066;13.768;2023-07-20T08:48:08;3.50;;;3.20;;
19739;SDS011;10027;51.066;13.768;2023-07-20T08:50:35;3.55;;;3.25;;
19739;SDS011;10027;51.066;13.768;2023-07-20T08:53:02;3.35;;;3.05;;
19739;SDS011;10027;51.066;13.768;2023-07-20T08:55:30;3.45;;;3.15;;
19739;SDS011;10027;51.066;13.768;2023-07-20T08:58:00;3.63;;;3.00;;
19739;SDS011;10027;51.066;13.768;2023-07-20T09:00:27;3.25;;;3.05;;
19739;SDS011;10027;51.066;13.768;2023-07-20T09:02:58;3.20;;;3.00;;
19739;SDS011;10027;51.066;13.768;2023-07-20T09:05:27;3.08;;;2.88;;
19739;SDS011;10027;51.066;13.768;2023-07-20T09:07:54;3.30;;;3.00;;
19739;SDS011;10027;51.066;13.768;2023-07-20T09:10:21;3.13;;;2.83;;
19739;SDS011;10027;51.066;13.768;2023-07-20T09:12:48;2.90;;;2.70;;
19739;SDS011;10027;51.066;13.768;2023-07-20T09:15:16;3.47;;;2.80;;
19739;SDS011;10027;51.066;13.768;2023-07-20T09:17:47;3.08;;;2.78;;
19739;SDS011;10027;51.066;13.768;2023-07-20T09:20:15;3.17;;;2.95;;
19739;SDS011;10027;51.066;13.768;2023-07-20T09:22:47;4.40;;;2.72;;
19739;SDS011;10027;51.066;13.768;2023-07-20T09:25:16;4.10;;;2.80;;
19739;SDS011;10027;51.066;13.768;2023-07-20T09:27:47;3.50;;;2.88;;
19739;SDS011;10027;51.066;13.768;2023-07-20T09:30:17;2.85;;;2.65;;
19739;SDS011;10027;51.066;13.768;2023-07-20T09:32:48;3.15;;;2.65;;
19739;SDS011;10027;51.066;13.768;2023-07-20T09:35:20;2.83;;;2.63;;
19739;SDS011;10027;51.066;13.768;2023-07-20T09:40:40;3.15;;;2.95;;
19739;SDS011;10027;51.066;13.768;2023-07-20T09:43:11;2.93;;;2.73;;
19739;SDS011;10027;51.066;13.768;2023-07-20T09:45:41;3.30;;;3.00;;
19739;SDS011;10027;51.066;13.768;2023-07-20T09:48:12;3.10;;;2.90;;
19739;SDS011;10027;51.066;13.768;2023-07-20T09:50:45;3.37;;;3.07;;
19739;SDS011;10027;51.066;13.768;2023-07-20T09:53:16;3.70;;;3.40;;
19739;SDS011;10027;51.066;13.768;2023-07-20T09:55:45;4.33;;;3.10;;
19739;SDS011;10027;51.066;13.768;2023-07-20T09:58:13;4.10;;;3.70;;
19739;SDS011;10027;51.066;13.768;2023-07-20T10:00:41;3.30;;;3.10;;
19739;SDS011;10027;51.066;13.768;2023-07-20T10:03:19;4.00;;;3.60;;
19739;SDS011;10027;51.066;13.768;2023-07-20T10:05:59;4.67;;;4.27;;
19739;SDS011;10027;51.066;13.768;2023-07-20T10:08:27;4.70;;;4.30;;
19739;SDS011;10027;51.066;13.768;2023-07-20T10:10:59;6.30;;;5.10;;
19739;SDS011;10027;51.066;13.768;2023-07-20T10:13:27;6.53;;;5.40;;
19739;SDS011;10027;51.066;13.768;2023-07-20T10:16:03;7.17;;;5.30;;
19739;SDS011;10027;51.066;13.768;2023-07-20T10:19:13;4.83;;;4.43;;
19739;SDS011;10027;51.066;13.768;2023-07-20T10:21:21;5.10;;;4.70;;
19739;SDS011;10027;51.066;13.768;2023-07-20T10:23:54;4.60;;;4.20;;
19739;SDS011;10027;51.066;13.768;2023-07-20T10:26:24;4.70;;;4.30;;
19739;SDS011;10027;51.066;13.768;2023-07-20T10:28:51;4.67;;;4.27;;
19739;SDS011;10027;51.066;13.768;2023-07-20T10:31:19;5.13;;;4.63;;
19739;SDS011;10027;51.066;13.768;2023-07-20T10:33:47;5.30;;;4.90;;
19739;SDS011;10027;51.066;13.768;2023-07-20T10:36:20;4.90;;;4.40;;
19739;SDS011;10027;51.066;13.768;2023-07-20T10:38:52;5.43;;;4.57;;
19739;SDS011;10027;51.066;13.768;2023-07-20T10:43:48;4.80;;;4.40;;
19739;SDS011;10027;51.066;13.768;2023-07-20T10:47:01;5.27;;;4.30;;
19739;SDS011;10027;51.066;13.768;2023-07-20T10:49:04;4.83;;;4.00;;
19739;SDS011;10027;51.066;13.768;2023-07-20T10:51:41;4.77;;;4.03;;
19739;SDS011;10027;51.066;13.768;2023-07-20T10:54:09;4.17;;;3.77;;
19739;SDS011;10027;51.066;13.768;2023-07-20T10:57:22;5.20;;;3.33;;
19739;SDS011;10027;51.066;13.768;2023-07-20T10:59:50;4.13;;;3.73;;
19739;SDS011;10027;51.066;13.768;2023-07-20T11:02:18;3.50;;;3.07;;
19739;SDS011;10027;51.066;13.768;2023-07-20T11:04:49;3.93;;;3.53;;
19739;SDS011;10027;51.066;13.768;2023-07-20T11:07:17;3.60;;;3.30;;
19739;SDS011;10027;51.066;13.768;2023-07-20T11:09:44;4.20;;;3.20;;
19739;SDS011;10027;51.066;13.768;2023-07-20T11:12:15;3.70;;;3.27;;
19739;SDS011;10027;51.066;13.768;2023-07-20T11:14:43;3.60;;;3.30;;
19739;SDS011;10027;51.066;13.768;2023-07-20T11:17:14;3.40;;;3.10;;
19739;SDS011;10027;51.066;13.768;2023-07-20T11:19:41;3.73;;;3.43;;
19739;SDS011;10027;51.066;13.768;2023-07-20T11:22:11;3.77;;;3.47;;
19739;SDS011;10027;51.066;13.768;2023-07-20T11:24:39;3.60;;;3.30;;
19739;SDS011;10027;51.066;13.768;2023-07-20T11:27:07;3.47;;;3.27;;
19739;SDS011;10027;51.066;13.768;2023-07-20T11:29:34;3.73;;;3.50;;
19739;SDS011;10027;51.066;13.768;2023-07-20T11:32:03;4.20;;;3.90;;
19739;SDS011;10027;51.066;13.768;2023-07-20T11:34:32;4.70;;;3.90;;
19739;SDS011;10027;51.066;13.768;2023-07-20T11:37:00;4.00;;;3.70;;
19739;SDS011;10027;51.066;13.768;2023-07-20T11:39:30;3.73;;;3.43;;
19739;SDS011;10027;51.066;13.768;2023-07-20T11:41:57;4.17;;;3.87;;
19739;SDS011;10027;51.066;13.768;2023-07-20T11:44:26;4.80;;;4.40;;
19739;SDS011;10027;51.066;13.768;2023-07-20T11:47:13;3.77;;;3.50;;
19739;SDS011;10027;51.066;13.768;2023-07-20T11:49:41;4.30;;;3.90;;
19739;SDS011;10027;51.066;13.768;2023-07-20T11:52:14;3.97;;;3.67;;
19739;SDS011;10027;51.066;13.768;2023-07-20T11:54:42;3.93;;;3.63;;
19739;SDS011;10027;51.066;13.768;2023-07-20T11:57:18;3.70;;;3.40;;
19739;SDS011;10027;51.066;13.768;2023-07-20T12:00:03;2.83;;;2.63;;
19739;SDS011;10027;51.066;13.768;2023-07-20T12:02:35;3.10;;;2.90;;
19739;SDS011;10027;51.066;13.768;2023-07-20T12:05:02;3.00;;;2.80;;
19739;SDS011;10027;51.066;13.768;2023-07-20T12:07:34;3.13;;;2.93;;
19739;SDS011;10027;51.066;13.768;2023-07-20T12:10:11;3.67;;;3.40;;
19739;SDS011;10027;51.066;13.768;2023-07-20T12:12:39;4.63;;;3.33;;
19739;SDS011;10027;51.066;13.768;2023-07-20T12:17:44;3.77;;;3.47;;
19739;SDS011;10027;51.066;13.768;2023-07-20T12:20:12;3.93;;;3.63;;
19739;SDS011;10027;51.066;13.768;2023-07-20T12:22:40;3.93;;;3.63;;
19739;SDS011;10027;51.066;13.768;2023-07-20T12:25:07;4.03;;;3.73;;
19739;SDS011;10027;51.066;13.768;2023-07-20T12:27:36;4.00;;;3.70;;
19739;SDS011;10027;51.066;13.768;2023-07-20T12:30:07;3.80;;;3.50;;
19739;SDS011;10027;51.066;13.768;2023-07-20T12:32:34;3.80;;;3.50;;
19739;SDS011;10027;51.066;13.768;2023-07-20T12:35:02;4.20;;;3.90;;
19739;SDS011;10027;51.066;13.768;2023-07-20T12:37:29;4.47;;;4.07;;
19739;SDS011;10027;51.066;13.768;2023-07-20T12:39:56;4.30;;;3.93;;
19739;SDS011;10027;51.066;13.768;2023-07-20T12:42:23;4.67;;;4.27;;
19739;SDS011;10027;51.066;13.768;2023-07-20T12:44:50;4.63;;;4.33;;
19739;SDS011;10027;51.066;13.768;2023-07-20T12:47:17;4.47;;;4.07;;
19739;SDS011;10027;51.066;13.768;2023-07-20T12:49:45;6.13;;;4.00;;
19739;SDS011;10027;51.066;13.768;2023-07-20T12:52:13;3.60;;;3.30;;
19739;SDS011;10027;51.066;13.768;2023-07-20T12:54:40;3.80;;;3.50;;
19739;SDS011;10027;51.066;13.768;2023-07-20T12:57:07;3.37;;;3.07;;
19739;SDS011;10027;51.066;13.768;2023-07-20T12:59:38;3.10;;;2.90;;
19739;SDS011;10027;51.066;13.768;2023-07-20T13:02:05;3.73;;;3.33;;
19739;SDS011;10027;51.066;13.768;2023-07-20T13:04:32;3.77;;;3.07;;
19739;SDS011;10027;51.066;13.768;2023-07-20T13:06:59;3.37;;;2.80;;
19739;SDS011;10027;51.066;13.768;2023-07-20T13:09:46;2.87;;;2.67;;
19739;SDS011;10027;51.066;13.768;2023-07-20T13:12:14;3.40;;;3.10;;
19739;SDS011;10027;51.066;13.768;2023-07-20T13:14:41;3.37;;;3.07;;
19739;SDS011;10027;51.066;13.768;2023-07-20T13:17:08;3.27;;;2.97;;
19739;SDS011;10027;51.066;13.768;2023-07-20T13:19:36;3.27;;;2.97;;
19739;SDS011;10027;51.066;13.768;2023-07-20T13:22:03;2.33;;;2.17;;
19739;SDS011;10027;51.066;13.768;2023-07-20T13:24:31;2.70;;;2.50;;
19739;SDS011;10027;51.066;13.768;2023-07-20T13:26:58;2.90;;;2.70;;
19739;SDS011;10027;51.066;13.768;2023-07-20T13:29:25;2.77;;;2.57;;
19739;SDS011;10027;51.066;13.768;2023-07-20T13:31:55;3.43;;;2.50;;
19739;SDS011;10027;51.066;13.768;2023-07-20T13:34:22;2.60;;;2.40;;
19739;SDS011;10027;51.066;13.768;2023-07-20T13:36:50;2.40;;;2.20;;
19739;SDS011;10027;51.066;13.768;2023-07-20T13:39:17;2.40;;;2.20;;
19739;SDS011;10027;51.066;13.768;2023-07-20T13:41:44;2.40;;;2.20;;
19739;SDS011;10027;51.066;13.768;2023-07-20T13:44:13;2.10;;;1.80;;
19739;SDS011;10027;51.066;13.768;2023-07-20T13:46:43;1.80;;;1.70;;
19739;SDS011;10027;51.066;13.768;2023-07-20T13:49:10;2.27;;;1.50;;
19739;SDS011;10027;51.066;13.768;2023-07-20T13:51:47;1.90;;;1.70;;
19739;SDS011;10027;51.066;13.768;2023-07-20T13:54:35;2.10;;;1.70;;
19739;SDS011;10027;51.066;13.768;2023-07-20T13:57:03;2.30;;;1.60;;
19739;SDS011;10027;51.066;13.768;2023-07-20T13:59:30;1.97;;;1.80;;
19739;SDS011;10027;51.066;13.768;2023-07-20T14:01:57;1.70;;;1.60;;
19739;SDS011;10027;51.066;13.768;2023-07-20T14:04:27;1.77;;;1.67;;
19739;SDS011;10027;51.066;13.768;2023-07-20T14:06:55;1.87;;;1.70;;
19739;SDS011;10027;51.066;13.768;2023-07-20T14:09:23;1.80;;;1.70;;
19739;SDS011;10027;51.066;13.768;2023-07-20T14:11:50;1.60;;;1.50;;
19739;SDS011;10027;51.066;13.768;2023-07-20T14:14:20;1.60;;;1.50;;
19739;SDS011;10027;51.066;13.768;2023-07-20T14:16:47;1.37;;;1.27;;
19739;SDS011;10027;51.066;13.768;2023-07-20T14:19:14;1.50;;;1.40;;
19739;SDS011;10027;51.066;13.768;2023-07-20T14:21:42;1.70;;;1.53;;
19739;SDS011;10027;51.066;13.768;2023-07-20T14:24:09;1.70;;;1.60;;
19739;SDS011;10027;51.066;13.768;2023-07-20T14:26:36;2.47;;;1.60;;
19739;SDS011;10027;51.066;13.768;2023-07-20T14:29:03;1.67;;;1.57;;
19739;SDS011;10027;51.066;13.768;2023-07-20T14:31:30;1.50;;;1.40;;
19739;SDS011;10027;51.066;13.768;2023-07-20T14:33:58;1.80;;;1.70;;
19739;SDS011;10027;51.066;13.768;2023-07-20T14:36:25;1.50;;;1.40;;
19739;SDS011;10027;51.066;13.768;2023-07-20T14:38:53;1.83;;;1.73;;
19739;SDS011;10027;51.066;13.768;2023-07-20T14:41:20;1.83;;;1.73;;
19739;SDS011;10027;51.066;13.768;2023-07-20T14:43:47;2.20;;;2.00;;
19739;SDS011;10027;51.066;13.768;2023-07-20T14:46:15;2.67;;;1.73;;
19739;SDS011;10027;51.066;13.768;2023-07-20T14:48:45;1.70;;;1.60;;
19739;SDS011;10027;51.066;13.768;2023-07-20T14:51:13;2.00;;;1.90;;
19739;SDS011;10027;51.066;13.768;2023-07-20T14:53:40;2.07;;;1.87;;
19739;SDS011;10027;51.066;13.768;2023-07-20T14:56:08;2.00;;;1.90;;
19739;SDS011;10027;51.066;13.768;2023-07-20T14:58:36;1.77;;;1.67;;
19739;SDS011;10027;51.066;13.768;2023-07-20T15:01:03;1.70;;;1.60;;